Time;durP1;ratioP1;P1;durP2;ratioP2;P2;SDS_P1;SDS_P2;PMS_P1;PMS_P2;Temp;Humidity;BMP_temperature;BMP_pressure;BME280_temperature;BME280_humidity;BME280_pressure;Samples;Min_cycle;Max_cycle;Signal;HPM_P1;HPM_P2
2023/01/08 00:02:00;;;;;;;66.78;50.03;;;16.00;78.50;;;;;;4924255;28;95083;-45
2023/01/08 00:04:26;;;;;;;65.57;49.55;;;16.00;78.60;;;;;;4926881;28;97915;-45
2023/01/08 00:06:51;;;;;;;67.18;49.70;;;16.00;78.60;;;;;;4915451;28;95295;-44
2023/01/08 00:09:17;;;;;;;67.35;49.70;;;16.00;78.60;;;;;;4917984;28;94927;-44
2023/01/08 00:11:43;;;;;;;65.82;49.85;;;16.00;78.60;;;;;;4924254;28;98375;-46
2023/01/08 00:14:09;;;;;;;66.00;49.47;;;16.00;78.70;;;;;;4920487;28;98255;-46
2023/01/08 00:16:35;;;;;;;67.88;49.80;;;15.90;78.50;;;;;;4920995;28;95330;-46
2023/01/08 00:19:01;;;;;;;66.68;49.65;;;15.90;78.70;;;;;;4918226;28;97314;-45
2023/01/08 00:21:27;;;;;;;68.40;49.92;;;15.90;78.60;;;;;;4920616;28;98087;-44
2023/01/08 00:23:53;;;;;;;65.80;49.60;;;15.90;78.70;;;;;;4915160;28;94963;-47
2023/01/08 00:26:18;;;;;;;66.72;50.03;;;15.90;78.60;;;;;;4910026;28;100721;-46
2023/01/08 00:28:44;;;;;;;67.00;49.65;;;15.90;78.70;;;;;;4916842;28;97455;-47
2023/01/08 00:31:11;;;;;;;66.97;49.92;;;15.90;78.80;;;;;;4917551;28;95760;-47
2023/01/08 00:33:37;;;;;;;65.60;49.75;;;15.90;78.70;;;;;;4923685;28;96548;-45
2023/01/08 00:36:07;;;;;;;66.35;49.58;;;15.90;78.70;;;;;;4918311;28;95204;-44
2023/01/08 00:38:33;;;;;;;66.82;49.42;;;15.90;78.50;;;;;;4918153;28;94723;-46
2023/01/08 00:40:59;;;;;;;67.32;50.15;;;15.90;78.80;;;;;;4911539;28;97316;-47
2023/01/08 00:43:24;;;;;;;66.78;49.80;;;15.80;78.70;;;;;;4907591;28;96055;-47
2023/01/08 00:45:52;;;;;;;66.50;50.17;;;15.80;78.70;;;;;;4917811;28;95587;-45
2023/01/08 00:48:18;;;;;;;67.03;49.72;;;15.90;78.90;;;;;;4928411;28;96606;-44
2023/01/08 00:50:44;;;;;;;67.15;49.70;;;15.90;78.80;;;;;;4919840;28;95935;-44
2023/01/08 00:53:10;;;;;;;66.60;49.45;;;15.80;78.70;;;;;;4925428;28;96484;-46
2023/01/08 00:55:35;;;;;;;66.97;50.15;;;15.80;78.70;;;;;;4920970;28;97861;-45
2023/01/08 00:58:01;;;;;;;65.53;49.83;;;15.80;78.90;;;;;;4913933;28;97156;-45
2023/01/08 01:00:27;;;;;;;66.10;49.50;;;15.80;78.90;;;;;;4916025;28;97628;-46
2023/01/08 01:02:53;;;;;;;65.93;49.60;;;15.80;78.90;;;;;;4918507;28;100231;-48
2023/01/08 01:05:18;;;;;;;67.43;49.58;;;15.80;78.90;;;;;;4921770;28;98035;-45
2023/01/08 01:07:44;;;;;;;65.60;49.55;;;15.80;78.80;;;;;;4922624;28;98791;-46
2023/01/08 01:10:13;;;;;;;65.47;49.42;;;15.70;78.80;;;;;;4921367;28;96186;-46
2023/01/08 01:12:42;;;;;;;66.78;49.15;;;15.70;78.90;;;;;;4925753;28;95213;-46
2023/01/08 01:15:11;;;;;;;66.72;49.65;;;15.80;79.00;;;;;;4919137;28;95895;-49
2023/01/08 01:17:39;;;;;;;67.30;49.33;;;15.70;78.90;;;;;;4921269;28;96183;-45
2023/01/08 01:20:06;;;;;;;67.00;49.92;;;15.70;78.90;;;;;;4909047;28;100806;-47
2023/01/08 01:22:32;;;;;;;66.15;49.53;;;15.70;78.90;;;;;;4923431;28;97719;-46
2023/01/08 01:24:58;;;;;;;66.10;49.53;;;15.70;78.80;;;;;;4920217;28;95365;-50
2023/01/08 01:27:25;;;;;;;66.82;49.83;;;15.70;78.80;;;;;;4912317;28;96670;-45
2023/01/08 01:29:50;;;;;;;65.90;49.45;;;15.70;78.90;;;;;;4924661;28;95992;-49
2023/01/08 01:32:16;;;;;;;65.60;49.30;;;15.70;79.50;;;;;;4924516;28;95557;-47
2023/01/08 01:34:42;;;;;;;66.00;49.50;;;15.70;78.90;;;;;;4912012;28;99848;-46
2023/01/08 01:37:11;;;;;;;67.13;49.42;;;15.70;78.90;;;;;;4916590;28;96420;-46
2023/01/08 01:39:36;;;;;;;65.70;49.38;;;15.70;78.90;;;;;;4921258;28;95136;-48
2023/01/08 01:42:02;;;;;;;66.32;50.03;;;15.70;78.90;;;;;;4918074;28;98714;-45
2023/01/08 01:44:45;;;;;;;67.18;49.70;;;15.70;78.80;;;;;;4913106;28;96548;-48
2023/01/08 01:47:13;;;;;;;66.38;49.30;;;15.70;78.90;;;;;;4917677;28;96377;-48
2023/01/08 01:49:46;;;;;;;66.50;49.70;;;15.70;78.90;;;;;;4921821;28;95252;-45
2023/01/08 01:52:12;;;;;;;65.93;49.35;;;15.70;78.90;;;;;;4929073;28;96243;-48
2023/01/08 01:54:37;;;;;;;67.68;49.50;;;15.70;78.80;;;;;;4919833;28;99122;-47
2023/01/08 01:57:04;;;;;;;66.03;49.70;;;15.70;78.90;;;;;;4917891;28;95705;-45
2023/01/08 01:59:30;;;;;;;66.25;49.58;;;15.70;78.90;;;;;;4922004;28;94245;-45
2023/01/08 02:01:56;;;;;;;66.13;49.95;;;15.70;78.80;;;;;;4921361;28;96579;-46
2023/01/08 02:04:22;;;;;;;66.78;49.53;;;15.70;78.80;;;;;;4924358;28;95796;-46
2023/01/08 02:07:11;;;;;;;65.22;49.38;;;15.60;78.90;;;;;;4927568;28;96213;-46
2023/01/08 02:10:12;;;;;;;67.32;49.60;;;15.70;78.90;;;;;;4920077;28;98849;-45
2023/01/08 02:12:43;;;;;;;65.40;48.80;;;15.70;78.90;;;;;;4875534;28;97545;-46
2023/01/08 02:15:15;;;;;;;66.55;49.75;;;15.60;78.70;;;;;;4910452;28;96030;-45
2023/01/08 02:17:59;;;;;;;66.30;49.25;;;15.70;78.80;;;;;;4919061;28;96591;-45
2023/01/08 02:20:36;;;;;;;65.35;49.50;;;15.60;78.80;;;;;;4926079;28;96386;-45
2023/01/08 02:23:41;;;;;;;66.72;49.03;;;15.60;78.80;;;;;;4913834;28;97963;-45
2023/01/08 02:26:29;;;;;;;65.07;49.30;;;15.60;78.80;;;;;;4925222;28;95174;-48
2023/01/08 02:29:08;;;;;;;66.22;49.47;;;15.60;78.80;;;;;;4920208;28;95593;-47
2023/01/08 02:31:36;;;;;;;66.85;49.58;;;15.60;78.80;;;;;;4922733;28;96789;-45
2023/01/08 02:34:02;;;;;;;65.63;49.10;;;15.60;78.80;;;;;;4908889;28;98025;-46
2023/01/08 02:36:38;;;;;;;65.55;49.17;;;15.60;78.80;;;;;;4913454;28;97979;-47
2023/01/08 02:39:34;;;;;;;65.55;49.85;;;15.60;78.80;;;;;;4911998;28;98865;-45
2023/01/08 02:42:00;;;;;;;65.50;49.47;;;15.50;78.80;;;;;;4919638;28;96516;-50
2023/01/08 02:45:13;;;;;;;65.68;49.15;;;15.60;78.80;;;;;;4920144;28;95084;-47
2023/01/08 02:47:48;;;;;;;64.38;48.97;;;15.50;78.80;;;;;;4908319;28;95508;-46
2023/01/08 02:50:30;;;;;;;64.53;48.83;;;15.50;78.80;;;;;;4930182;28;97879;-46
2023/01/08 02:53:19;;;;;;;65.88;49.45;;;15.50;78.90;;;;;;4930325;28;94500;-48
2023/01/08 02:55:53;;;;;;;67.25;49.55;;;15.50;78.90;;;;;;4919392;28;95303;-45
2023/01/08 02:58:20;;;;;;;66.30;49.42;;;15.50;78.80;;;;;;4918180;28;96681;-46
2023/01/08 03:00:47;;;;;;;66.35;49.03;;;15.50;78.80;;;;;;4912605;28;97787;-47
2023/01/08 03:03:26;;;;;;;65.28;49.25;;;15.50;78.80;;;;;;4932243;28;98877;-45
2023/01/08 03:05:55;;;;;;;66.15;49.30;;;15.50;78.80;;;;;;4931986;28;95237;-45
2023/01/08 03:08:22;;;;;;;66.43;49.42;;;15.50;78.90;;;;;;4929305;28;95189;-48
2023/01/08 03:11:06;;;;;;;68.07;49.47;;;15.40;78.80;;;;;;4921026;28;96152;-46
2023/01/08 03:13:44;;;;;;;67.43;49.00;;;15.50;78.90;;;;;;4920607;28;98575;-44
2023/01/08 03:16:16;;;;;;;65.30;49.17;;;15.40;78.70;;;;;;4918775;28;95690;-46
2023/01/08 03:18:48;;;;;;;65.57;49.30;;;15.50;78.80;;;;;;4914092;28;98752;-47
2023/01/08 03:21:14;;;;;;;;;;;15.40;78.90;;;;;;4922111;28;97475;-46
2023/01/08 03:23:41;;;;;;;64.95;49.28;;;15.40;78.80;;;;;;4934442;28;94873;-45
2023/01/08 03:26:08;;;;;;;65.72;49.40;;;15.40;78.80;;;;;;4916733;28;98252;-45
2023/01/08 03:28:38;;;;;;;65.82;49.42;;;15.40;78.80;;;;;;4916934;28;95147;-45
2023/01/08 03:31:04;;;;;;;65.88;49.13;;;15.40;78.80;;;;;;4920808;28;97796;-46
2023/01/08 03:33:31;;;;;;;65.22;49.38;;;15.40;78.70;;;;;;4912695;28;96499;-46
2023/01/08 03:35:59;;;;;;;65.30;49.42;;;15.40;78.80;;;;;;4918967;28;95652;-48
2023/01/08 03:38:40;;;;;;;65.93;49.33;;;15.40;78.80;;;;;;4917088;28;96506;-46
2023/01/08 03:41:11;;;;;;;66.30;49.33;;;15.30;78.80;;;;;;4915847;28;95219;-46
2023/01/08 03:43:37;;;;;;;67.10;49.60;;;15.30;78.80;;;;;;4920009;28;96910;-44
2023/01/08 03:46:06;;;;;;;66.03;49.10;;;15.30;78.80;;;;;;4909231;28;100741;-47
2023/01/08 03:48:35;;;;;;;64.30;49.10;;;15.30;79.00;;;;;;4920099;28;95466;-45
2023/01/08 03:51:01;;;;;;;65.90;49.33;;;15.30;78.90;;;;;;4926893;28;95776;-46
2023/01/08 03:53:27;;;;;;;67.13;49.15;;;15.30;78.90;;;;;;4911812;28;99172;-45
2023/01/08 03:55:53;;;;;;;64.57;49.22;;;15.30;78.80;;;;;;4921510;28;96984;-45
2023/01/08 03:58:19;;;;;;;65.45;49.03;;;15.30;79.00;;;;;;4913038;28;97938;-45
2023/01/08 04:00:44;;;;;;;65.32;49.53;;;15.30;79.00;;;;;;4934532;28;97081;-45
2023/01/08 04:03:10;;;;;;;67.03;49.17;;;15.30;79.00;;;;;;4929840;28;94904;-44
2023/01/08 04:05:35;;;;;;;65.38;49.10;;;15.30;79.00;;;;;;4918822;28;96939;-48
2023/01/08 04:08:01;;;;;;;64.45;48.85;;;15.20;78.90;;;;;;4925238;28;94799;-45
2023/01/08 04:10:27;;;;;;;67.07;49.95;;;15.30;79.00;;;;;;4924184;28;95090;-47
2023/01/08 04:12:52;;;;;;;66.70;49.35;;;15.20;79.00;;;;;;4918939;28;97784;-47
2023/01/08 04:15:18;;;;;;;68.50;49.90;;;15.20;78.90;;;;;;4920378;28;96074;-45
2023/01/08 04:17:44;;;;;;;66.20;49.22;;;15.20;79.30;;;;;;4928298;28;100152;-48
2023/01/08 04:20:10;;;;;;;65.50;49.08;;;15.20;79.20;;;;;;4932549;28;95831;-45
2023/01/08 04:22:35;;;;;;;66.93;49.50;;;15.20;79.00;;;;;;4919100;28;100103;-48
2023/01/08 04:25:01;;;;;;;64.75;49.15;;;15.20;79.00;;;;;;4916470;28;97476;-46
2023/01/08 04:27:27;;;;;;;66.38;49.03;;;15.10;79.00;;;;;;4923476;28;99227;-46
2023/01/08 04:29:52;;;;;;;66.15;49.78;;;15.10;79.00;;;;;;4916697;28;96196;-45
2023/01/08 04:32:19;;;;;;;66.95;49.45;;;15.10;78.90;;;;;;4919843;28;97323;-45
2023/01/08 04:34:44;;;;;;;65.43;49.38;;;15.10;79.00;;;;;;4925313;28;95329;-45
2023/01/08 04:37:10;;;;;;;65.85;49.13;;;15.10;79.10;;;;;;4913489;28;95982;-46
2023/01/08 04:39:35;;;;;;;66.53;49.45;;;15.10;79.00;;;;;;4918381;28;96045;-45
2023/01/08 04:42:01;;;;;;;64.90;49.17;;;15.10;79.10;;;;;;4918587;28;95065;-45
2023/01/08 04:44:27;;;;;;;65.85;49.28;;;15.10;79.00;;;;;;4925635;28;95599;-46
2023/01/08 04:46:52;;;;;;;65.50;48.83;;;15.10;79.10;;;;;;4916151;28;95327;-47
2023/01/08 04:49:18;;;;;;;64.65;48.95;;;15.10;79.10;;;;;;4918498;28;95384;-48
2023/01/08 04:51:44;;;;;;;65.72;49.08;;;15.10;79.10;;;;;;4927913;28;96844;-46
2023/01/08 04:54:09;;;;;;;65.03;49.05;;;15.00;79.10;;;;;;4916068;28;95758;-46
2023/01/08 04:56:35;;;;;;;65.03;49.10;;;15.00;79.00;;;;;;4929058;28;95748;-46
2023/01/08 04:59:01;;;;;;;66.55;49.53;;;15.10;79.10;;;;;;4917368;28;97775;-49
2023/01/08 05:01:27;;;;;;;65.28;48.97;;;15.00;79.00;;;;;;4926864;28;94723;-47
2023/01/08 05:03:58;;;;;;;66.50;49.28;;;15.00;79.10;;;;;;4916045;28;96851;-46
2023/01/08 05:06:25;;;;;;;65.13;49.13;;;15.00;79.10;;;;;;4914361;28;95711;-48
2023/01/08 05:08:51;;;;;;;64.40;49.05;;;15.00;79.10;;;;;;4924448;28;94809;-48
2023/01/08 05:11:16;;;;;;;66.35;49.25;;;15.00;79.30;;;;;;4917393;28;100065;-45
2023/01/08 05:13:42;;;;;;;66.07;49.15;;;15.00;79.10;;;;;;4910618;28;96207;-46
2023/01/08 05:16:08;;;;;;;65.70;49.42;;;15.00;79.10;;;;;;4926124;28;96081;-46
2023/01/08 05:18:34;;;;;;;65.68;49.22;;;15.00;79.10;;;;;;4926731;28;97913;-46
2023/01/08 05:21:01;;;;;;;66.22;49.17;;;15.00;79.10;;;;;;4915540;28;94859;-47
2023/01/08 05:23:28;;;;;;;64.78;49.33;;;15.00;79.10;;;;;;4917391;28;95316;-45
2023/01/08 05:26:00;;;;;;;65.70;48.85;;;15.00;79.10;;;;;;4917693;28;96303;-45
2023/01/08 05:28:26;;;;;;;66.15;49.08;;;15.00;79.10;;;;;;4924452;28;96886;-47
2023/01/08 05:30:52;;;;;;;67.10;49.40;;;15.00;79.20;;;;;;4905358;28;98415;-47
2023/01/08 05:33:18;;;;;;;65.95;48.92;;;14.90;79.10;;;;;;4920408;28;95986;-47
2023/01/08 05:35:44;;;;;;;66.85;49.28;;;14.90;78.90;;;;;;4923654;28;97218;-52
2023/01/08 05:38:09;;;;;;;66.10;49.08;;;14.90;78.80;;;;;;4911200;28;97717;-46
2023/01/08 05:40:35;;;;;;;66.25;49.47;;;15.00;79.20;;;;;;4921786;28;95664;-47
2023/01/08 05:43:01;;;;;;;65.68;49.22;;;14.90;79.00;;;;;;4917826;28;96286;-46
2023/01/08 05:45:27;;;;;;;66.10;49.35;;;15.00;79.10;;;;;;4917301;28;95831;-48
2023/01/08 05:47:53;;;;;;;65.28;49.00;;;14.90;78.90;;;;;;4906590;28;97797;-46
2023/01/08 05:50:19;;;;;;;64.93;49.10;;;14.90;79.00;;;;;;4916444;28;95354;-50
2023/01/08 05:52:45;;;;;;;64.60;49.15;;;14.90;78.90;;;;;;4933761;28;96225;-50
2023/01/08 05:55:10;;;;;;;64.85;49.08;;;14.90;78.90;;;;;;4925251;28;96006;-47
2023/01/08 05:57:36;;;;;;;66.47;49.30;;;14.90;78.90;;;;;;4910278;28;95147;-47
2023/01/08 06:00:04;;;;;;;67.30;49.45;;;14.90;78.90;;;;;;4908382;28;96041;-47
2023/01/08 06:02:30;;;;;;;64.28;48.75;;;14.90;78.90;;;;;;4924917;28;96470;-48
2023/01/08 06:04:55;;;;;;;64.60;49.15;;;14.90;78.90;;;;;;4919203;28;98980;-46
2023/01/08 06:07:21;;;;;;;68.07;49.35;;;14.90;79.00;;;;;;4916796;28;95659;-51
2023/01/08 06:09:47;;;;;;;64.43;49.63;;;14.90;79.00;;;;;;4920953;28;96260;-45
2023/01/08 06:12:12;;;;;;;66.85;49.38;;;14.90;79.20;;;;;;4930692;28;96190;-46
2023/01/08 06:14:38;;;;;;;66.57;48.90;;;14.90;79.00;;;;;;4916570;28;95104;-50
2023/01/08 06:17:03;;;;;;;66.97;49.42;;;14.90;79.00;;;;;;4915724;28;95720;-46
2023/01/08 06:19:29;;;;;;;64.53;49.17;;;14.90;78.90;;;;;;4921606;28;95826;-47
2023/01/08 06:21:55;;;;;;;65.20;49.17;;;14.90;79.20;;;;;;4919670;28;97261;-49
2023/01/08 06:24:21;;;;;;;66.10;49.13;;;14.80;79.00;;;;;;4917104;28;95939;-49
2023/01/08 06:26:46;;;;;;;69.00;49.17;;;14.90;79.10;;;;;;4925699;28;99482;-48
2023/01/08 06:29:12;;;;;;;67.35;48.97;;;14.90;79.20;;;;;;4925798;28;96989;-48
2023/01/08 06:31:38;;;;;;;66.95;48.97;;;14.80;79.10;;;;;;4927195;28;94876;-47
2023/01/08 06:34:03;;;;;;;66.57;49.33;;;14.90;79.00;;;;;;4919220;28;95401;-45
2023/01/08 06:36:29;;;;;;;65.65;49.03;;;14.80;79.10;;;;;;4917616;28;95265;-47
2023/01/08 06:38:54;;;;;;;65.78;49.72;;;14.80;79.20;;;;;;4926663;28;95476;-46
2023/01/08 06:41:21;;;;;;;66.93;48.88;;;14.90;79.20;;;;;;4922143;28;95816;-46
2023/01/08 06:43:46;;;;;;;65.78;48.67;;;14.80;79.10;;;;;;4931236;28;96142;-45
2023/01/08 06:46:13;;;;;;;67.78;49.03;;;14.80;79.20;;;;;;4922651;28;95578;-47
2023/01/08 06:48:39;;;;;;;65.88;49.03;;;14.80;79.20;;;;;;4930088;28;95432;-47
2023/01/08 06:51:05;;;;;;;67.88;48.97;;;14.80;79.20;;;;;;4933091;28;99720;-46
2023/01/08 06:53:31;;;;;;;66.10;49.15;;;14.80;79.20;;;;;;4927744;28;97057;-47
2023/01/08 06:55:57;;;;;;;68.05;49.42;;;14.80;79.30;;;;;;4921206;28;100835;-47
2023/01/08 06:58:25;;;;;;;67.45;49.50;;;14.80;79.10;;;;;;4922334;28;94940;-50
2023/01/08 07:00:50;;;;;;;65.47;49.28;;;14.70;79.30;;;;;;4923293;28;95567;-46
2023/01/08 07:03:16;;;;;;;65.75;49.17;;;14.80;79.10;;;;;;4926476;28;97176;-45
2023/01/08 07:05:42;;;;;;;68.43;49.55;;;14.80;79.20;;;;;;4924136;28;98152;-47
2023/01/08 07:08:13;;;;;;;65.63;48.85;;;14.80;79.00;;;;;;4941587;28;94754;-49
2023/01/08 07:10:39;;;;;;;66.82;49.00;;;14.80;79.10;;;;;;4923728;28;95233;-51
2023/01/08 07:13:06;;;;;;;67.47;49.03;;;14.80;79.30;;;;;;4927130;28;95764;-45
2023/01/08 07:15:32;;;;;;;68.53;48.70;;;14.80;79.30;;;;;;4921445;28;98763;-46
2023/01/08 07:17:58;;;;;;;69.60;49.33;;;14.80;79.30;;;;;;4921891;28;94979;-47
2023/01/08 07:20:23;;;;;;;65.68;49.15;;;14.70;79.30;;;;;;4921024;28;96807;-44
2023/01/08 07:22:49;;;;;;;65.28;49.40;;;14.80;79.30;;;;;;4930528;28;98937;-49
2023/01/08 07:25:14;;;;;;;66.95;49.08;;;14.70;79.20;;;;;;4922231;28;95948;-44
2023/01/08 07:27:40;;;;;;;72.00;49.63;;;14.70;79.30;;;;;;4929585;28;97426;-45
2023/01/08 07:30:06;;;;;;;64.70;48.90;;;14.70;79.30;;;;;;4929676;28;96768;-45
2023/01/08 07:32:32;;;;;;;66.88;49.00;;;14.70;79.40;;;;;;4916820;28;95984;-46
2023/01/08 07:34:58;;;;;;;67.13;49.25;;;14.70;79.30;;;;;;4917728;28;97824;-48
2023/01/08 07:37:25;;;;;;;66.75;49.47;;;14.70;79.50;;;;;;4921833;28;95319;-48
2023/01/08 07:39:52;;;;;;;65.43;49.05;;;14.70;79.40;;;;;;4920972;28;97267;-46
2023/01/08 07:42:18;;;;;;;65.70;48.90;;;14.70;79.30;;;;;;4919565;28;98895;-46
2023/01/08 07:44:43;;;;;;;66.93;49.30;;;14.70;79.30;;;;;;4925020;28;95298;-47
2023/01/08 07:47:09;;;;;;;68.10;49.22;;;14.70;79.30;;;;;;4932837;28;94224;-49
2023/01/08 07:49:35;;;;;;;67.70;49.15;;;14.70;79.30;;;;;;4915374;28;95168;-46
2023/01/08 07:52:00;;;;;;;66.15;49.15;;;14.70;79.30;;;;;;4917176;28;95963;-47
2023/01/08 07:54:26;;;;;;;68.97;49.20;;;14.70;79.30;;;;;;4913510;28;97698;-46
2023/01/08 07:56:54;;;;;;;65.75;49.08;;;14.70;79.30;;;;;;4924288;28;94677;-49
2023/01/08 07:59:20;;;;;;;67.90;49.65;;;14.70;79.30;;;;;;4918668;28;99152;-49
2023/01/08 08:01:46;;;;;;;67.68;48.95;;;14.70;79.30;;;;;;4921439;28;95111;-48
2023/01/08 08:04:14;;;;;;;66.78;49.58;;;14.70;79.20;;;;;;4935802;28;95217;-50
2023/01/08 08:06:40;;;;;;;68.00;49.50;;;14.70;79.10;;;;;;4928278;28;96493;-48
2023/01/08 08:09:05;;;;;;;67.72;49.10;;;14.70;79.30;;;;;;4919784;28;94863;-46
2023/01/08 08:11:31;;;;;;;66.03;49.28;;;14.70;79.30;;;;;;4918118;28;94441;-47
2023/01/08 08:13:57;;;;;;;65.10;49.35;;;14.70;79.30;;;;;;4922919;28;97103;-50
2023/01/08 08:16:22;;;;;;;65.25;49.15;;;14.70;79.10;;;;;;4923003;28;94881;-47
2023/01/08 08:18:48;;;;;;;74.45;49.58;;;14.70;79.20;;;;;;4925080;28;96780;-48
2023/01/08 08:21:13;;;;;;;70.93;49.55;;;14.70;79.20;;;;;;4915441;28;96463;-48
2023/01/08 08:23:39;;;;;;;67.15;49.80;;;14.70;79.20;;;;;;4921732;28;96100;-46
2023/01/08 08:26:06;;;;;;;65.82;49.08;;;14.60;79.20;;;;;;4923861;28;100322;-48
2023/01/08 08:28:32;;;;;;;65.65;49.20;;;14.60;79.00;;;;;;4914935;28;94798;-46
2023/01/08 08:30:58;;;;;;;65.60;49.17;;;14.70;79.40;;;;;;4920613;28;98932;-49
2023/01/08 08:33:23;;;;;;;69.00;49.20;;;14.70;79.30;;;;;;4916298;28;95057;-45
2023/01/08 08:35:52;;;;;;;66.90;49.50;;;14.60;79.10;;;;;;4918233;28;94929;-46
2023/01/08 08:38:18;;;;;;;65.35;49.28;;;14.70;79.10;;;;;;4920361;28;96828;-46
2023/01/08 08:40:43;;;;;;;66.47;49.20;;;14.70;79.00;;;;;;4913264;28;96294;-48
2023/01/08 08:43:09;;;;;;;65.15;49.03;;;14.70;79.00;;;;;;4923272;28;96237;-47
2023/01/08 08:45:35;;;;;;;66.40;49.10;;;14.70;79.10;;;;;;4914999;28;95126;-49
2023/01/08 08:48:03;;;;;;;65.07;49.05;;;14.70;78.90;;;;;;4915612;28;96203;-46
2023/01/08 08:50:29;;;;;;;64.72;49.28;;;14.70;79.00;;;;;;4918057;28;96239;-46
2023/01/08 08:52:59;;;;;;;66.97;49.30;;;14.70;79.00;;;;;;4920763;28;95112;-47
2023/01/08 08:55:25;;;;;;;66.93;49.28;;;14.70;78.80;;;;;;4920975;28;96873;-48
2023/01/08 08:57:51;;;;;;;64.75;49.05;;;14.70;78.60;;;;;;4916418;28;95534;-47
2023/01/08 09:00:17;;;;;;;66.15;49.28;;;14.80;78.80;;;;;;4928398;28;103421;-46
2023/01/08 09:02:43;;;;;;;66.05;49.30;;;14.80;78.80;;;;;;4923405;28;95186;-47
2023/01/08 09:05:09;;;;;;;65.53;49.80;;;14.80;78.90;;;;;;4919165;28;96310;-47
2023/01/08 09:07:35;;;;;;;66.95;49.55;;;14.90;78.70;;;;;;4916627;28;100100;-51
2023/01/08 09:10:01;;;;;;;66.07;49.40;;;15.00;78.60;;;;;;4915065;28;97553;-45
2023/01/08 09:12:27;;;;;;;66.88;49.35;;;15.00;79.20;;;;;;4907993;28;97867;-47
2023/01/08 09:14:53;;;;;;;67.82;49.00;;;14.90;79.10;;;;;;4916347;28;95618;-47
2023/01/08 09:17:20;;;;;;;68.47;48.92;;;15.00;79.00;;;;;;4924992;28;96898;-46
2023/01/08 09:19:46;;;;;;;67.20;49.17;;;15.00;79.60;;;;;;4917954;28;96374;-49
2023/01/08 09:22:11;;;;;;;64.95;49.13;;;15.00;79.50;;;;;;4910159;28;96643;-46
2023/01/08 09:24:37;;;;;;;68.50;48.88;;;15.00;80.30;;;;;;4915153;28;95677;-47
2023/01/08 09:27:03;;;;;;;63.90;49.10;;;15.00;80.40;;;;;;4907590;28;95764;-49
2023/01/08 09:29:28;;;;;;;69.45;49.03;;;15.00;80.30;;;;;;4905210;28;97421;-47
2023/01/08 09:31:54;;;;;;;66.15;48.75;;;15.00;80.70;;;;;;4916775;28;97515;-47
2023/01/08 09:34:20;;;;;;;67.68;49.42;;;15.00;81.00;;;;;;4921207;28;95190;-47
2023/01/08 09:36:46;;;;;;;66.72;49.35;;;15.10;81.80;;;;;;4906320;28;98303;-47
2023/01/08 09:39:11;;;;;;;67.15;49.45;;;15.10;81.70;;;;;;4916984;28;96251;-48
2023/01/08 09:41:43;;;;;;;68.10;49.22;;;15.10;81.90;;;;;;4910639;28;99389;-46
2023/01/08 09:44:15;;;;;;;69.57;49.10;;;15.10;81.80;;;;;;4910454;28;96809;-44
2023/01/08 09:46:41;;;;;;;72.97;49.55;;;15.10;81.10;;;;;;4907481;28;97016;-46
2023/01/08 09:49:13;;;;;;;75.88;49.58;;;15.20;81.20;;;;;;4909622;28;94808;-44
2023/01/08 09:51:39;;;;;;;69.68;50.15;;;15.30;81.00;;;;;;4913880;28;97898;-47
2023/01/08 09:54:06;;;;;;;69.38;48.75;;;15.30;81.40;;;;;;4918236;28;96865;-46
2023/01/08 09:56:36;;;;;;;71.78;49.70;;;15.40;81.10;;;;;;4922155;28;98584;-48
2023/01/08 09:59:03;;;;;;;73.45;49.70;;;15.40;80.90;;;;;;4910348;28;94931;-46
2023/01/08 10:01:34;;;;;;;70.35;49.42;;;15.40;80.80;;;;;;4918765;28;99479;-45
2023/01/08 10:04:20;;;;;;;72.53;49.10;;;15.40;80.80;;;;;;4921237;28;97824;-47
2023/01/08 10:06:55;;;;;;;67.60;49.67;;;15.40;80.60;;;;;;4918582;28;95968;-47
2023/01/08 10:09:30;;;;;;;69.70;49.65;;;15.40;80.60;;;;;;4918304;28;103109;-46
2023/01/08 10:12:00;;;;;;;70.53;49.78;;;15.40;80.70;;;;;;4905177;28;94928;-47
2023/01/08 10:14:33;;;;;;;78.50;49.60;;;15.50;81.20;;;;;;4917854;28;94843;-48
2023/01/08 10:17:16;;;;;;;71.45;49.72;;;15.40;81.00;;;;;;4929415;28;95692;-44
2023/01/08 10:19:42;;;;;;;72.05;50.33;;;15.50;81.30;;;;;;4915207;28;97088;-46
2023/01/08 10:22:16;;;;;;;68.30;49.85;;;15.50;81.50;;;;;;4910524;28;98091;-47
2023/01/08 10:24:42;;;;;;;74.38;50.28;;;15.60;81.10;;;;;;4921804;28;95992;-45
2023/01/08 10:27:12;;;;;;;71.30;49.45;;;15.60;81.30;;;;;;4907807;28;96908;-45
2023/01/08 10:29:41;;;;;;;70.80;49.42;;;15.60;80.90;;;;;;4915921;28;95563;-46
2023/01/08 10:32:16;;;;;;;70.10;49.67;;;15.50;80.60;;;;;;4912253;28;95647;-45
2023/01/08 10:34:51;;;;;;;72.82;49.80;;;15.50;80.50;;;;;;4926639;28;95263;-45
2023/01/08 10:37:25;;;;;;;71.40;49.95;;;15.50;80.10;;;;;;4905136;28;96575;-49
2023/01/08 10:39:52;;;;;;;70.43;49.63;;;15.50;80.10;;;;;;4916637;28;95629;-45
2023/01/08 10:42:21;;;;;;;67.38;49.35;;;15.50;80.30;;;;;;4922323;28;95447;-46
2023/01/08 10:45:00;;;;;;;75.38;50.35;;;15.60;81.00;;;;;;4912203;28;99723;-48
2023/01/08 10:47:29;;;;;;;71.13;50.47;;;15.70;81.20;;;;;;4913105;28;97209;-51
2023/01/08 10:49:56;;;;;;;69.45;50.40;;;15.80;81.20;;;;;;4920266;28;95900;-50
2023/01/08 10:52:32;;;;;;;76.97;51.22;;;15.80;80.90;;;;;;4921029;28;100330;-47
2023/01/08 10:55:38;;;;;;;71.97;51.05;;;15.70;81.00;;;;;;4918965;28;96532;-45
2023/01/08 10:58:09;;;;;;;78.72;51.38;;;15.70;82.70;;;;;;4930732;28;96328;-46
2023/01/08 11:00:36;;;;;;;;;;;15.70;82.20;;;;;;4931481;28;98436;-45
2023/01/08 11:03:05;;;;;;;76.80;51.63;;;15.20;74.00;;;;;;4920371;28;95242;-45
2023/01/08 11:05:33;;;;;;;75.22;51.90;;;14.80;80.70;;;;;;4906948;28;96173;-45
2023/01/08 11:08:00;;;;;;;79.28;51.67;;;14.50;76.70;;;;;;4916759;28;97597;-47
2023/01/08 11:10:27;;;;;;;75.88;52.13;;;14.40;77.60;;;;;;4922657;28;97694;-46
2023/01/08 11:12:57;;;;;;;76.30;51.58;;;14.40;78.50;;;;;;4919138;28;100363;-46
2023/01/08 11:15:36;;;;;;;77.53;52.17;;;14.50;78.40;;;;;;4916359;28;95766;-46
2023/01/08 11:18:09;;;;;;;81.78;52.55;;;14.50;77.90;;;;;;4909034;28;96932;-47
2023/01/08 11:20:35;;;;;;;75.45;52.75;;;14.40;78.00;;;;;;4923142;28;97113;-47
2023/01/08 11:23:21;;;;;;;75.63;51.55;;;14.40;79.10;;;;;;4917077;28;94792;-48
2023/01/08 11:26:06;;;;;;;74.45;51.92;;;14.50;78.80;;;;;;4921789;28;98184;-46
2023/01/08 11:28:46;;;;;;;84.93;56.50;;;14.40;77.50;;;;;;4907003;28;95639;-48
2023/01/08 11:31:24;;;;;;;82.88;55.22;;;14.50;77.10;;;;;;4925549;28;94945;-46
2023/01/08 11:33:57;;;;;;;75.38;52.65;;;14.40;76.70;;;;;;4907495;28;96065;-48
2023/01/08 11:36:32;;;;;;;78.50;53.92;;;14.30;75.10;;;;;;4903551;28;96197;-48
2023/01/08 11:38:58;;;;;;;80.97;52.67;;;14.30;77.70;;;;;;4921570;28;95702;-47
2023/01/08 11:41:32;;;;;;;78.20;53.83;;;14.30;79.00;;;;;;4914562;28;98817;-51
2023/01/08 11:44:18;;;;;;;76.13;52.97;;;14.30;78.30;;;;;;4908197;28;95548;-47
2023/01/08 11:47:07;;;;;;;83.03;57.72;;;14.40;79.80;;;;;;4917042;28;94868;-46
2023/01/08 11:49:50;;;;;;;89.47;59.25;;;14.30;78.00;;;;;;4912912;28;101674;-49
2023/01/08 11:52:33;;;;;;;82.00;58.42;;;14.30;79.30;;;;;;4916279;28;97813;-47
2023/01/08 11:55:31;;;;;;;83.15;55.70;;;14.40;79.50;;;;;;4920495;28;99056;-45
2023/01/08 11:58:21;;;;;;;79.50;54.30;;;14.40;79.10;;;;;;4910292;28;98113;-46
2023/01/08 12:01:25;;;;;;;81.10;55.42;;;14.50;80.00;;;;;;4910375;28;98480;-47
2023/01/08 12:03:59;;;;;;;77.88;54.95;;;14.60;78.10;;;;;;4880627;28;97801;-46
2023/01/08 12:06:26;;;;;;;73.88;53.10;;;14.70;79.50;;;;;;4906794;28;97770;-48
2023/01/08 12:09:20;;;;;;;75.80;54.20;;;14.80;79.10;;;;;;4920251;28;97399;-46
2023/01/08 12:11:48;;;;;;;78.28;52.55;;;14.70;78.30;;;;;;4916933;28;97418;-46
2023/01/08 12:14:48;;;;;;;79.50;53.65;;;14.70;77.30;;;;;;4911298;28;95056;-47
2023/01/08 12:17:41;;;;;;;74.47;52.05;;;14.70;77.50;;;;;;4918531;28;95111;-49
2023/01/08 12:20:34;;;;;;;77.55;52.95;;;14.70;76.90;;;;;;4916797;28;97582;-45
2023/01/08 12:23:26;;;;;;;74.18;52.88;;;14.80;79.00;;;;;;4919558;28;95536;-45
2023/01/08 12:26:09;;;;;;;74.78;54.35;;;14.70;75.80;;;;;;4927625;28;94791;-47
2023/01/08 12:28:53;;;;;;;71.32;52.10;;;14.70;81.00;;;;;;4923758;28;95497;-47
2023/01/08 12:31:24;;;;;;;76.70;52.15;;;14.80;79.80;;;;;;4925924;28;97174;-45
2023/01/08 12:33:55;;;;;;;75.80;52.57;;;14.90;78.80;;;;;;4921272;28;97996;-46
2023/01/08 12:36:28;;;;;;;72.97;51.80;;;14.80;79.10;;;;;;4915641;28;96616;-46
2023/01/08 12:39:10;;;;;;;74.28;52.47;;;14.90;77.80;;;;;;4916646;28;95165;-48
2023/01/08 12:41:38;;;;;;;75.53;51.60;;;14.80;78.80;;;;;;4917153;28;97509;-46